createdAt,value
2019-05-02T00:09:11.170Z,5.94
2019-05-02T00:29:23.716Z,6.52
2019-05-02T00:49:30.758Z,5.89
2019-05-02T01:09:37.189Z,5.70
2019-05-02T01:29:46.597Z,6.30
2019-05-02T01:50:00.520Z,6.58
2019-05-02T02:10:02.159Z,6.47
2019-05-02T02:30:01.532Z,7.62
2019-05-02T02:50:10.880Z,7.25
2019-05-02T03:10:20.212Z,7.36
2019-05-02T03:30:31.652Z,7.69
2019-05-02T03:50:43.167Z,9.05
2019-05-02T04:10:42.568Z,8.36
2019-05-02T04:30:53.819Z,8.59
2019-05-02T04:51:09.969Z,8.14
2019-05-02T05:11:02.010Z,8.52
2019-05-02T05:31:11.419Z,7.93
2019-05-02T05:51:20.866Z,7.76
2019-05-02T06:11:41.309Z,7.68
2019-05-02T06:31:31.115Z,6.87
2019-05-02T06:51:42.006Z,5.51
2019-05-02T07:11:56.896Z,4.84
2019-05-02T07:31:58.564Z,4.94
2019-05-02T07:52:07.893Z,4.74
2019-05-02T08:12:20.453Z,4.67
2019-05-02T08:32:21.290Z,4.76
2019-05-02T08:52:31.928Z,5.47
2019-05-02T09:12:32.028Z,6.04
2019-05-02T09:32:41.905Z,7.62
2019-05-02T09:52:49.252Z,7.02
2019-05-02T10:12:58.699Z,7.12
2019-05-02T10:33:08.139Z,7.96
2019-05-02T10:53:17.741Z,7.24
2019-05-02T11:13:27.151Z,5.20
2019-05-02T11:33:36.711Z,4.43
2019-05-02T11:53:46.496Z,4.47
2019-05-02T12:13:57.065Z,8.41
2019-05-02T12:34:06.627Z,9.74
2019-05-02T12:54:16.755Z,9.82
2019-05-02T13:15:24.704Z,10.80
2019-05-02T13:35:24.238Z,10.82
2019-05-02T13:55:33.539Z,9.37
2019-05-02T14:15:42.838Z,5.88
2019-05-02T14:35:52.753Z,5.81
2019-05-02T14:56:05.992Z,5.42
2019-05-02T15:16:17.663Z,4.52
2019-05-02T15:36:12.869Z,3.91
2019-05-02T15:56:24.366Z,3.97
2019-05-02T16:16:36.497Z,3.54
2019-05-02T16:36:37.300Z,3.62
2019-05-02T16:56:42.311Z,3.87
2019-05-02T17:16:52.352Z,4.27
2019-05-02T17:37:03.458Z,4.33
2019-05-02T17:57:08.219Z,5.80
2019-05-02T18:17:16.266Z,6.33
2019-05-02T18:37:25.722Z,6.26
2019-05-02T18:57:35.356Z,6.53
2019-05-02T19:17:44.625Z,6.59
2019-05-02T19:37:55.137Z,6.03
2019-05-02T19:58:06.393Z,5.70
2019-05-02T20:18:06.337Z,6.20
2019-05-02T20:38:05.752Z,5.10
2019-05-02T20:58:15.316Z,5.18
2019-05-02T21:18:24.734Z,5.23
2019-05-02T21:38:34.098Z,5.65
2019-05-02T21:58:43.679Z,5.81
2019-05-02T22:18:53.103Z,6.08
2019-05-02T22:39:02.060Z,5.97
2019-05-02T22:59:09.984Z,6.47
2019-05-02T23:19:19.409Z,7.03
2019-05-02T23:39:29.637Z,7.92
2019-05-02T23:59:29.096Z,9.11
